createdAt,value
2023-05-21T00:01:33.554Z,70.48
2023-05-21T00:04:01.371Z,68.61
2023-05-21T00:06:29.133Z,73.16
2023-05-21T00:08:56.880Z,71.50
2023-05-21T00:11:24.512Z,70.96
2023-05-21T00:13:52.161Z,73.88
2023-05-21T00:16:21.261Z,71.48
2023-05-21T00:18:49.731Z,74.89
2023-05-21T00:21:17.755Z,75.50
2023-05-21T00:23:48.116Z,76.00
2023-05-21T00:26:15.734Z,75.78
2023-05-21T00:28:43.488Z,73.93
2023-05-21T00:31:11.181Z,75.20
2023-05-21T00:33:40.197Z,74.38
2023-05-21T00:36:08.751Z,75.30
2023-05-21T00:38:38.035Z,74.91
2023-05-21T00:41:05.936Z,76.63
2023-05-21T00:43:33.806Z,75.88
2023-05-21T00:46:01.676Z,73.83
2023-05-21T00:48:29.448Z,76.19
2023-05-21T00:50:58.501Z,73.66
2023-05-21T00:53:27.543Z,74.05
2023-05-21T00:55:55.222Z,74.00
2023-05-21T00:58:22.916Z,71.94
2023-05-21T01:00:51.005Z,74.46
2023-05-21T01:03:19.189Z,75.36
2023-05-21T01:05:48.875Z,75.89
2023-05-21T01:08:18.103Z,72.55
2023-05-21T01:10:45.832Z,75.19
2023-05-21T01:13:14.945Z,77.81
2023-05-21T01:15:43.152Z,76.36
2023-05-21T01:18:11.003Z,77.55
2023-05-21T01:20:39.235Z,78.47
2023-05-21T01:23:08.221Z,79.74
2023-05-21T01:25:36.741Z,79.86
2023-05-21T01:28:04.714Z,78.22
2023-05-21T01:30:32.430Z,78.89
2023-05-21T01:33:04.844Z,77.14
2023-05-21T01:35:36.358Z,79.49
2023-05-21T01:38:15.199Z,79.25
2023-05-21T01:40:48.267Z,79.66
2023-05-21T01:43:16.488Z,78.15
2023-05-21T01:45:46.100Z,80.16
2023-05-21T01:48:14.750Z,78.41
2023-05-21T01:50:46.328Z,79.87
2023-05-21T01:53:17.268Z,81.77
2023-05-21T01:55:45.932Z,80.85
2023-05-21T01:58:15.710Z,80.95
2023-05-21T02:00:45.418Z,78.33
2023-05-21T02:03:14.695Z,77.37
2023-05-21T02:05:42.458Z,77.80
2023-05-21T02:08:11.202Z,76.25
2023-05-21T02:10:40.277Z,77.82
2023-05-21T02:13:08.075Z,77.81
2023-05-21T02:15:35.920Z,79.13
2023-05-21T02:18:04.339Z,79.30
2023-05-21T02:20:32.377Z,78.17
2023-05-21T02:23:00.113Z,75.57
2023-05-21T02:25:27.780Z,80.00
2023-05-21T02:27:56.902Z,77.25
2023-05-21T02:30:24.651Z,77.57
2023-05-21T02:32:52.371Z,78.28
2023-05-21T02:35:20.069Z,78.95
2023-05-21T02:37:47.784Z,79.81
2023-05-21T02:40:15.545Z,79.18
2023-05-21T02:42:43.270Z,80.81
2023-05-21T02:45:13.740Z,81.14
2023-05-21T02:47:41.717Z,82.26
2023-05-21T02:50:12.128Z,82.08
2023-05-21T02:52:39.800Z,80.59
2023-05-21T02:55:08.633Z,79.91
2023-05-21T02:57:36.320Z,77.05
2023-05-21T03:00:05.881Z,75.41
2023-05-21T03:02:35.070Z,74.62
2023-05-21T03:05:02.903Z,74.65
2023-05-21T03:07:30.681Z,78.55
2023-05-21T03:09:58.323Z,79.61
2023-05-21T03:12:26.348Z,76.62
2023-05-21T03:14:54.165Z,73.99
2023-05-21T03:17:22.270Z,75.55
2023-05-21T03:19:52.004Z,77.49
2023-05-21T03:22:20.244Z,77.44
2023-05-21T03:24:48.621Z,76.28
2023-05-21T03:27:16.795Z,75.15
2023-05-21T03:29:44.665Z,76.85
2023-05-21T03:32:12.539Z,78.77
2023-05-21T03:34:40.225Z,79.96
2023-05-21T03:37:09.323Z,81.89
2023-05-21T03:39:36.978Z,80.13
2023-05-21T03:42:04.941Z,77.32
2023-05-21T03:44:32.918Z,77.53
2023-05-21T03:47:00.749Z,74.58
2023-05-21T03:49:28.495Z,76.25
2023-05-21T03:51:56.338Z,78.67
2023-05-21T03:54:25.674Z,80.13
2023-05-21T03:56:53.409Z,75.86
2023-05-21T03:59:21.241Z,76.99
2023-05-21T04:01:48.930Z,78.71
2023-05-21T04:04:16.788Z,78.92
2023-05-21T04:06:44.549Z,78.45
2023-05-21T04:09:12.417Z,77.17
2023-05-21T04:11:41.429Z,80.19
2023-05-21T04:14:09.166Z,77.46
2023-05-21T04:16:38.627Z,79.30
2023-05-21T04:19:06.518Z,76.53
2023-05-21T04:21:34.369Z,77.50
2023-05-21T04:24:02.128Z,77.27
2023-05-21T04:26:33.766Z,77.31
2023-05-21T04:29:04.958Z,79.72
2023-05-21T04:31:33.169Z,81.05
2023-05-21T04:34:00.972Z,81.46
2023-05-21T04:36:30.157Z,83.00
2023-05-21T04:38:57.844Z,78.99
2023-05-21T04:41:25.534Z,81.07
2023-05-21T04:43:55.346Z,76.53
2023-05-21T04:46:25.676Z,76.55
2023-05-21T04:48:55.026Z,78.95
2023-05-21T04:51:24.639Z,77.85
2023-05-21T04:53:53.868Z,78.07
2023-05-21T04:56:22.810Z,80.41
2023-05-21T04:58:50.820Z,78.44
2023-05-21T05:01:18.963Z,77.38
2023-05-21T05:03:48.185Z,77.25
2023-05-21T05:06:15.908Z,74.63
2023-05-21T05:08:43.629Z,74.25
2023-05-21T05:11:11.332Z,71.06
2023-05-21T05:13:40.205Z,73.06
2023-05-21T05:16:09.060Z,77.54
2023-05-21T05:18:36.989Z,74.42
2023-05-21T05:21:06.149Z,75.51
2023-05-21T05:23:33.826Z,70.19
2023-05-21T05:26:01.588Z,67.81
2023-05-21T05:28:29.280Z,70.06
2023-05-21T05:30:57.048Z,65.35
2023-05-21T05:33:24.771Z,66.63
2023-05-21T05:35:52.597Z,62.42
2023-05-21T05:38:21.694Z,64.28
2023-05-21T05:40:49.384Z,58.63
2023-05-21T05:43:17.046Z,57.48
2023-05-21T05:45:44.720Z,52.75
2023-05-21T05:48:12.961Z,54.68
2023-05-21T05:50:41.023Z,62.50
2023-05-21T05:53:08.719Z,56.97
2023-05-21T05:55:38.282Z,61.83
2023-05-21T05:58:06.504Z,65.11
2023-05-21T06:00:34.197Z,60.47
2023-05-21T06:03:01.991Z,61.89
2023-05-21T06:05:29.765Z,71.90
2023-05-21T06:07:57.562Z,74.45
2023-05-21T06:10:25.297Z,65.21
2023-05-21T06:12:54.361Z,63.24
2023-05-21T06:15:22.233Z,65.23
2023-05-21T06:17:49.928Z,67.35
2023-05-21T06:20:17.873Z,64.20
2023-05-21T06:22:45.571Z,66.94
2023-05-21T06:25:13.254Z,67.35
2023-05-21T06:27:40.953Z,71.04
2023-05-21T06:30:10.757Z,69.06
2023-05-21T06:32:38.541Z,71.20
2023-05-21T06:35:07.341Z,69.02
2023-05-21T06:37:35.073Z,69.53
2023-05-21T06:40:03.238Z,66.30
2023-05-21T06:42:30.983Z,71.31
2023-05-21T06:44:58.643Z,67.72
2023-05-21T06:47:27.637Z,70.92
2023-05-21T06:49:55.398Z,72.44
2023-05-21T06:52:23.188Z,73.85
2023-05-21T06:54:50.992Z,68.91
2023-05-21T06:57:18.653Z,67.42
2023-05-21T06:59:46.353Z,71.48
2023-05-21T07:02:14.107Z,75.23
2023-05-21T07:04:43.142Z,70.93
2023-05-21T07:07:10.881Z,70.96
2023-05-21T07:09:38.558Z,68.31
2023-05-21T07:12:06.745Z,67.00
2023-05-21T07:14:34.427Z,65.87
2023-05-21T07:17:02.157Z,62.45
2023-05-21T07:19:30.063Z,68.38
2023-05-21T07:21:59.229Z,68.36
2023-05-21T07:24:27.617Z,65.40
2023-05-21T07:26:55.336Z,64.63
2023-05-21T07:29:23.025Z,63.52
2023-05-21T07:31:50.745Z,55.61
2023-05-21T07:34:18.567Z,55.64
2023-05-21T07:36:46.246Z,56.20
2023-05-21T07:39:15.318Z,56.69
2023-05-21T07:41:42.957Z,60.01
2023-05-21T07:44:10.641Z,57.78
2023-05-21T07:46:38.418Z,61.00
2023-05-21T07:49:06.118Z,64.65
2023-05-21T07:51:34.131Z,66.35
2023-05-21T07:54:01.828Z,67.28
2023-05-21T07:56:32.361Z,64.63
2023-05-21T07:59:00.034Z,62.55
2023-05-21T08:01:29.596Z,65.08
2023-05-21T08:04:00.679Z,65.92
2023-05-21T08:06:28.508Z,59.97
2023-05-21T08:08:56.189Z,58.74
2023-05-21T08:11:23.926Z,61.27
2023-05-21T08:13:52.994Z,67.61
2023-05-21T08:16:21.204Z,64.57
2023-05-21T08:18:48.888Z,63.67
2023-05-21T08:21:17.009Z,64.83
2023-05-21T08:23:44.802Z,62.44
2023-05-21T08:26:12.905Z,65.11
2023-05-21T08:28:40.592Z,63.26
2023-05-21T08:31:09.653Z,62.57
2023-05-21T08:33:38.226Z,66.12
2023-05-21T08:36:07.026Z,65.67
2023-05-21T08:38:36.433Z,69.33
2023-05-21T08:41:07.848Z,70.05
2023-05-21T08:43:38.029Z,67.56
2023-05-21T08:46:06.419Z,70.24
2023-05-21T08:48:37.656Z,69.67
2023-05-21T08:51:06.383Z,64.01
2023-05-21T08:53:34.318Z,63.85
2023-05-21T08:56:02.695Z,63.70
2023-05-21T08:58:33.569Z,68.42
2023-05-21T09:01:01.508Z,67.39
2023-05-21T09:03:31.666Z,64.51
2023-05-21T09:06:01.751Z,63.91
2023-05-21T09:08:32.869Z,62.49
2023-05-21T09:11:02.608Z,69.73
2023-05-21T09:13:32.628Z,68.38
2023-05-21T09:16:01.034Z,66.37
2023-05-21T09:18:28.717Z,64.65
2023-05-21T09:20:57.224Z,67.82
2023-05-21T09:23:29.739Z,66.01
2023-05-21T09:25:57.488Z,64.48
2023-05-21T09:28:26.380Z,68.20
2023-05-21T09:30:54.598Z,69.58
2023-05-21T09:33:26.824Z,69.18
2023-05-21T09:35:54.692Z,70.28
2023-05-21T09:38:23.933Z,68.03
2023-05-21T09:40:56.176Z,68.35
2023-05-21T09:43:23.919Z,69.93
2023-05-21T09:45:53.298Z,70.72
2023-05-21T09:48:34.525Z,68.84
2023-05-21T09:51:12.891Z,67.06
2023-05-21T09:53:54.483Z,67.34
2023-05-21T09:56:25.369Z,68.25
2023-05-21T09:58:54.728Z,66.53
2023-05-21T10:01:22.915Z,62.85
2023-05-21T10:03:56.265Z,63.54
2023-05-21T10:06:26.106Z,62.54
2023-05-21T10:08:55.902Z,64.91
2023-05-21T10:11:27.090Z,65.24
2023-05-21T10:13:59.107Z,65.93
2023-05-21T10:16:26.901Z,64.38
2023-05-21T10:18:57.578Z,65.66
2023-05-21T10:21:26.138Z,66.70
2023-05-21T10:23:56.443Z,64.86
2023-05-21T10:26:26.893Z,62.72
2023-05-21T10:28:57.232Z,63.68
2023-05-21T10:31:26.609Z,66.88
2023-05-21T10:33:55.080Z,66.04
2023-05-21T10:36:23.097Z,67.22
2023-05-21T10:38:50.777Z,61.84
2023-05-21T10:41:21.902Z,63.50
2023-05-21T10:44:03.747Z,62.70
2023-05-21T10:47:05.869Z,61.63
2023-05-21T10:49:51.582Z,60.99
2023-05-21T10:52:33.763Z,60.89
2023-05-21T10:55:13.858Z,62.33
2023-05-21T10:58:09.880Z,63.18
2023-05-21T11:00:39.806Z,61.35
2023-05-21T11:03:09.245Z,62.65
2023-05-21T11:05:42.132Z,62.17
2023-05-21T11:08:23.202Z,63.18
2023-05-21T11:10:54.915Z,61.54
2023-05-21T11:13:23.558Z,63.13
2023-05-21T11:16:08.967Z,61.82
2023-05-21T11:18:58.910Z,61.46
2023-05-21T11:21:31.164Z,60.12
2023-05-21T11:24:08.409Z,60.24
2023-05-21T11:27:02.230Z,61.20
2023-05-21T11:29:41.486Z,60.58
2023-05-21T11:32:11.440Z,61.16
2023-05-21T11:34:45.810Z,59.96
2023-05-21T11:37:41.723Z,57.67
2023-05-21T11:40:25.786Z,60.56
2023-05-21T11:42:54.859Z,61.95
2023-05-21T11:45:23.692Z,61.49
2023-05-21T11:47:53.536Z,61.11
2023-05-21T11:50:21.467Z,61.83
2023-05-21T11:52:50.243Z,60.21
2023-05-21T11:55:23.008Z,61.62
2023-05-21T11:57:55.048Z,61.11
2023-05-21T12:00:23.138Z,59.09
2023-05-21T12:02:55.509Z,59.74
2023-05-21T12:05:23.675Z,60.33
2023-05-21T12:07:51.444Z,59.08
2023-05-21T12:10:22.253Z,60.02
2023-05-21T12:12:55.645Z,57.10
2023-05-21T12:15:25.014Z,59.67
2023-05-21T12:17:54.386Z,60.89
2023-05-21T12:20:23.286Z,59.87
2023-05-21T12:22:51.084Z,58.96
2023-05-21T12:25:20.518Z,59.47
2023-05-21T12:27:50.456Z,59.05
2023-05-21T12:30:18.265Z,58.36
2023-05-21T12:32:46.004Z,60.01
2023-05-21T12:35:24.048Z,61.45
2023-05-21T12:37:52.582Z,61.10
2023-05-21T12:40:22.115Z,61.94
2023-05-21T12:42:50.955Z,58.72
2023-05-21T12:45:21.071Z,57.78
2023-05-21T12:47:50.544Z,58.05
2023-05-21T12:50:23.006Z,59.18
2023-05-21T12:52:50.707Z,59.39
2023-05-21T12:55:18.416Z,57.67
2023-05-21T12:57:47.587Z,58.12
2023-05-21T13:00:15.431Z,57.16
2023-05-21T13:02:45.771Z,61.84
2023-05-21T13:05:18.205Z,58.51
2023-05-21T13:07:47.889Z,57.54
2023-05-21T13:10:17.077Z,58.98
2023-05-21T13:12:45.219Z,57.69
2023-05-21T13:15:13.310Z,56.80
2023-05-21T13:17:41.052Z,55.63
2023-05-21T13:20:12.057Z,54.12
2023-05-21T13:22:43.784Z,58.05
2023-05-21T13:25:15.687Z,57.38
2023-05-21T13:27:44.525Z,62.19
2023-05-21T13:30:12.666Z,60.53
2023-05-21T13:32:41.418Z,61.36
2023-05-21T13:35:10.292Z,60.25
2023-05-21T13:37:38.133Z,56.21
2023-05-21T13:40:07.110Z,55.05
2023-05-21T13:42:38.324Z,53.54
2023-05-21T13:45:06.763Z,55.01
2023-05-21T13:47:36.841Z,55.62
2023-05-21T13:50:08.271Z,60.06
2023-05-21T13:52:36.347Z,58.74
2023-05-21T13:55:04.221Z,59.29
2023-05-21T13:57:32.121Z,60.00
2023-05-21T14:00:02.073Z,61.02
2023-05-21T14:02:30.136Z,59.83
2023-05-21T14:04:57.994Z,61.16
2023-05-21T14:07:25.717Z,60.52
2023-05-21T14:09:53.445Z,60.55
2023-05-21T14:12:21.729Z,58.09
2023-05-21T14:14:49.702Z,61.39
2023-05-21T14:17:18.943Z,58.69
2023-05-21T14:19:48.000Z,58.35
2023-05-21T14:22:15.782Z,58.11
2023-05-21T14:24:43.522Z,59.78
2023-05-21T14:27:13.150Z,58.61
2023-05-21T14:29:42.308Z,59.38
2023-05-21T14:32:10.084Z,61.14
2023-05-21T14:34:40.337Z,59.88
2023-05-21T14:37:08.125Z,60.37
2023-05-21T14:39:35.881Z,60.44
2023-05-21T14:42:04.561Z,62.82
2023-05-21T14:44:32.708Z,60.55
2023-05-21T14:47:00.502Z,59.97
2023-05-21T14:49:28.274Z,58.80
2023-05-21T14:51:57.310Z,56.47
2023-05-21T14:54:25.015Z,58.84
2023-05-21T14:56:52.760Z,58.46
2023-05-21T14:59:20.421Z,59.21
2023-05-21T15:01:48.222Z,59.99
2023-05-21T15:04:16.029Z,57.69
2023-05-21T15:06:43.813Z,59.20
2023-05-21T15:09:13.029Z,58.01
2023-05-21T15:11:40.795Z,57.93
2023-05-21T15:14:08.465Z,56.51
2023-05-21T15:16:36.203Z,56.06
2023-05-21T15:19:04.229Z,57.56
2023-05-21T15:21:32.084Z,58.77
2023-05-21T15:23:59.906Z,58.75
2023-05-21T15:26:28.945Z,56.10
2023-05-21T15:28:56.732Z,58.16
2023-05-21T15:31:24.410Z,58.80
2023-05-21T15:33:52.116Z,58.37
2023-05-21T15:36:19.940Z,58.36
2023-05-21T15:38:47.707Z,56.84
2023-05-21T15:41:15.410Z,58.87
2023-05-21T15:43:44.397Z,59.00
2023-05-21T15:46:12.729Z,58.25
2023-05-21T15:48:40.486Z,59.02
2023-05-21T15:51:08.242Z,62.27
2023-05-21T15:53:35.920Z,60.99
2023-05-21T15:56:04.185Z,60.33
2023-05-21T15:58:32.340Z,61.02
2023-05-21T16:01:01.485Z,58.49
2023-05-21T16:03:29.197Z,59.54
2023-05-21T16:05:56.877Z,60.65
2023-05-21T16:08:24.716Z,59.41
2023-05-21T16:10:52.374Z,61.46
2023-05-21T16:13:20.283Z,62.39
2023-05-21T16:15:47.927Z,61.03
2023-05-21T16:18:17.006Z,60.48
2023-05-21T16:20:44.919Z,60.20
2023-05-21T16:23:12.864Z,59.24
2023-05-21T16:25:40.589Z,58.64
2023-05-21T16:28:08.252Z,59.20
2023-05-21T16:30:35.900Z,60.62
2023-05-21T16:33:03.936Z,61.50
2023-05-21T16:35:33.006Z,62.55
2023-05-21T16:38:01.048Z,59.18
2023-05-21T16:40:28.715Z,61.75
2023-05-21T16:42:56.378Z,59.19
2023-05-21T16:45:24.088Z,60.37
2023-05-21T16:47:52.436Z,62.71
2023-05-21T16:50:20.735Z,61.10
2023-05-21T16:52:49.760Z,60.39
2023-05-21T16:55:17.477Z,61.42
2023-05-21T16:57:45.160Z,62.57
2023-05-21T17:00:13.759Z,63.61
2023-05-21T17:02:41.494Z,62.54
2023-05-21T17:05:09.526Z,60.97
2023-05-21T17:07:37.254Z,62.43
2023-05-21T17:10:07.679Z,61.56
2023-05-21T17:12:35.316Z,60.78
2023-05-21T17:15:04.020Z,60.74
2023-05-21T17:17:31.748Z,58.39
2023-05-21T17:19:59.668Z,56.70
2023-05-21T17:22:27.344Z,57.67
2023-05-21T17:24:55.125Z,57.15
2023-05-21T17:27:24.109Z,61.10
2023-05-21T17:29:51.792Z,59.14
2023-05-21T17:32:20.821Z,59.04
2023-05-21T17:34:48.513Z,60.26
2023-05-21T17:37:16.283Z,61.57
2023-05-21T17:39:43.994Z,60.39
2023-05-21T17:42:11.871Z,61.15
2023-05-21T17:44:40.881Z,62.19
2023-05-21T17:47:08.996Z,62.09
2023-05-21T17:49:36.758Z,60.04
2023-05-21T17:52:04.752Z,60.81
2023-05-21T17:54:32.571Z,60.79
2023-05-21T17:57:00.277Z,62.04
2023-05-21T17:59:27.998Z,63.66
2023-05-21T18:01:57.752Z,61.23
2023-05-21T18:04:25.470Z,64.45
2023-05-21T18:06:53.171Z,62.51
2023-05-21T18:09:20.833Z,61.31
2023-05-21T18:11:48.503Z,62.20
2023-05-21T18:14:16.285Z,59.60
2023-05-21T18:16:43.998Z,61.35
2023-05-21T18:19:13.377Z,63.17
2023-05-21T18:21:41.139Z,63.90
2023-05-21T18:24:09.275Z,61.23
2023-05-21T18:26:37.011Z,61.97
2023-05-21T18:29:04.716Z,60.39
2023-05-21T18:31:32.536Z,65.51
2023-05-21T18:34:00.224Z,63.55
2023-05-21T18:36:29.534Z,61.82
2023-05-21T18:38:57.573Z,61.16
2023-05-21T18:41:26.395Z,62.76
2023-05-21T18:43:54.071Z,65.25
2023-05-21T18:46:21.817Z,62.80
2023-05-21T18:48:49.796Z,63.83
2023-05-21T18:51:17.570Z,64.52
2023-05-21T18:53:46.566Z,66.97
2023-05-21T18:56:14.558Z,64.42
2023-05-21T18:58:42.241Z,64.88
2023-05-21T19:01:09.988Z,64.39
2023-05-21T19:03:39.071Z,65.11
2023-05-21T19:06:06.857Z,63.82
2023-05-21T19:08:34.771Z,68.98
2023-05-21T19:11:04.366Z,68.22
2023-05-21T19:13:32.046Z,68.07
2023-05-21T19:15:59.783Z,67.58
2023-05-21T19:18:30.368Z,68.12
2023-05-21T19:21:00.134Z,67.62
2023-05-21T19:23:28.545Z,69.03
2023-05-21T19:25:57.167Z,68.33
2023-05-21T19:28:26.189Z,66.91
2023-05-21T19:30:53.874Z,67.22
2023-05-21T19:33:21.723Z,66.29
2023-05-21T19:35:50.997Z,63.37
2023-05-21T19:38:18.673Z,65.59
2023-05-21T19:40:46.340Z,65.20
2023-05-21T19:43:14.012Z,64.70
2023-05-21T19:45:43.068Z,66.36
2023-05-21T19:48:11.089Z,65.80
2023-05-21T19:50:39.041Z,65.15
2023-05-21T19:53:07.339Z,65.10
2023-05-21T19:55:37.381Z,67.25
2023-05-21T19:58:05.127Z,67.48
2023-05-21T20:00:33.213Z,68.54
2023-05-21T20:03:02.341Z,67.78
2023-05-21T20:05:30.066Z,65.80
2023-05-21T20:07:58.398Z,64.28
2023-05-21T20:10:28.054Z,65.35
2023-05-21T20:12:55.837Z,64.91
2023-05-21T20:15:23.590Z,67.14
2023-05-21T20:17:51.382Z,66.79
2023-05-21T20:20:22.923Z,64.60
2023-05-21T20:22:50.654Z,66.50
2023-05-21T20:25:18.347Z,67.48
2023-05-21T20:27:46.414Z,67.94
2023-05-21T20:30:14.468Z,67.90
2023-05-21T20:32:42.180Z,69.49
2023-05-21T20:35:10.476Z,69.16
2023-05-21T20:37:39.653Z,68.94
2023-05-21T20:40:09.116Z,66.92
2023-05-21T20:42:37.161Z,65.79
2023-05-21T20:45:05.255Z,68.40
2023-05-21T20:47:33.714Z,69.36
2023-05-21T20:50:02.778Z,65.42
2023-05-21T20:52:30.472Z,64.65
2023-05-21T20:55:00.175Z,65.76
2023-05-21T20:57:29.764Z,65.58
2023-05-21T20:59:57.535Z,65.71
2023-05-21T21:02:25.440Z,66.29
2023-05-21T21:04:53.804Z,68.34
2023-05-21T21:07:21.884Z,67.93
2023-05-21T21:09:50.300Z,66.19
2023-05-21T21:12:25.314Z,67.90
2023-05-21T21:14:54.464Z,67.92
2023-05-21T21:17:22.174Z,65.85
2023-05-21T21:19:49.913Z,66.56
2023-05-21T21:22:18.300Z,65.74
2023-05-21T21:24:46.377Z,67.46
2023-05-21T21:27:14.283Z,68.37
2023-05-21T21:29:43.291Z,67.19
2023-05-21T21:32:10.965Z,69.02
2023-05-21T21:34:38.640Z,69.77
2023-05-21T21:37:06.537Z,70.83
2023-05-21T21:39:34.258Z,69.99
2023-05-21T21:42:02.025Z,69.85
2023-05-21T21:44:29.709Z,69.15
2023-05-21T21:46:58.700Z,69.13
2023-05-21T21:49:26.401Z,70.17
2023-05-21T21:51:57.631Z,68.49
2023-05-21T21:54:25.525Z,66.22
2023-05-21T21:56:53.203Z,68.49
2023-05-21T21:59:22.389Z,68.31
2023-05-21T22:01:50.229Z,68.79
2023-05-21T22:04:19.371Z,69.26
2023-05-21T22:06:48.226Z,68.26
2023-05-21T22:09:16.928Z,67.50
2023-05-21T22:11:44.672Z,64.63
2023-05-21T22:14:12.429Z,65.38
2023-05-21T22:16:41.474Z,66.53
2023-05-21T22:19:10.078Z,67.59
2023-05-21T22:21:39.670Z,67.70
2023-05-21T22:24:12.713Z,67.69
2023-05-21T22:26:45.468Z,65.76
2023-05-21T22:29:13.151Z,65.18
2023-05-21T22:31:40.820Z,65.66
2023-05-21T22:34:08.535Z,64.43
2023-05-21T22:36:38.756Z,63.83
2023-05-21T22:39:08.053Z,66.42
2023-05-21T22:41:35.769Z,67.43
2023-05-21T22:44:03.436Z,68.69
2023-05-21T22:46:31.981Z,67.49
2023-05-21T22:49:00.156Z,66.57
2023-05-21T22:51:28.799Z,65.38
2023-05-21T22:53:56.481Z,67.19
2023-05-21T22:56:26.316Z,65.74
2023-05-21T22:58:54.053Z,65.33
2023-05-21T23:01:21.796Z,65.60
2023-05-21T23:03:49.492Z,66.30
2023-05-21T23:06:17.224Z,63.92
2023-05-21T23:08:44.882Z,66.32
2023-05-21T23:11:12.621Z,66.17
2023-05-21T23:13:41.767Z,65.50
2023-05-21T23:16:09.546Z,66.52
2023-05-21T23:18:37.261Z,64.97
2023-05-21T23:21:05.148Z,63.87
2023-05-21T23:23:32.870Z,64.30
2023-05-21T23:26:00.585Z,66.34
2023-05-21T23:28:28.222Z,66.21
2023-05-21T23:30:57.284Z,67.08
2023-05-21T23:33:24.925Z,66.31
2023-05-21T23:35:52.586Z,66.35
2023-05-21T23:38:20.316Z,66.34
2023-05-21T23:40:48.008Z,67.02
2023-05-21T23:43:15.681Z,67.64
2023-05-21T23:45:43.436Z,66.75
2023-05-21T23:48:12.636Z,65.66
2023-05-21T23:50:40.417Z,67.56
2023-05-21T23:53:08.350Z,67.57
2023-05-21T23:55:36.446Z,67.31
2023-05-21T23:58:04.246Z,68.56
